Time;durP1;ratioP1;P1;durP2;ratioP2;P2;SDS_P1;SDS_P2;PMS_P1;PMS_P2;Temp;Humidity;BMP_temperature;BMP_pressure;BME280_temperature;BME280_humidity;BME280_pressure;Samples;Min_cycle;Max_cycle;Signal;HPM_P1;HPM_P2
2021/11/01 12:21:49;;;;;;;4.88;1.15;;;;;;;10.20;100.00;97875.66;4858832;29;20064;-80
2021/11/01 12:24:24;;;;;;;2.60;1.02;;;;;;;10.38;100.00;97879.59;4932498;28;22310;-81
2021/11/01 12:27:09;;;;;;;3.50;1.20;;;;;;;10.31;100.00;97873.31;4974390;28;20057;-81
2021/11/01 12:30:34;;;;;;;2.97;0.98;;;;;;;10.26;100.00;97868.53;4977290;28;20043;-80
2021/11/01 12:33:19;;;;;;;3.13;0.85;;;;;;;10.25;100.00;97883.16;4993765;28;20511;-81
2021/11/01 12:38:54;;;;;;;1.98;1.02;;;;;;;10.30;100.00;97888.78;4973456;28;20065;-81
2021/11/01 12:41:42;;;;;;;1.15;1.08;;;;;;;10.22;100.00;97856.41;4974543;28;20054;-80
2021/11/01 12:57:04;;;;;;;0.60;0.60;;;;;;;10.05;100.00;97832.47;4858644;29;20069;-80
2021/11/01 12:59:42;;;;;;;2.42;0.75;;;;;;;10.01;100.00;97833.94;4930354;29;20061;-80
2021/11/01 13:02:13;;;;;;;1.60;0.90;;;;;;;10.13;100.00;97811.53;4948035;29;20051;-80
2021/11/01 13:05:09;;;;;;;2.05;1.10;;;;;;;10.24;100.00;97830.72;4974233;28;20068;-80
2021/11/01 13:10:43;;;;;;;;;;;;;;;10.15;100.00;97804.84;4914936;29;20080;-80
2021/11/01 13:58:36;;;;;;;1.42;1.10;;;;;;;10.48;100.00;97831.06;4904766;29;20146;-80
2021/11/01 14:01:30;;;;;;;3.03;1.35;;;;;;;10.35;100.00;97795.81;4955293;29;20488;-80
2021/11/01 14:28:10;;;;;;;2.15;0.88;;;;;;;10.45;100.00;97778.00;4846850;29;20125;-81
2021/11/01 14:31:02;;;;;;;2.22;1.35;;;;;;;10.46;100.00;97795.13;4860935;29;20133;-80
2021/11/01 15:29:17;;;;;;;2.15;1.15;;;;;;;10.44;100.00;97759.19;5013900;28;20513;-81
2021/11/01 15:40:23;;;;;;;2.97;1.20;;;;;;;10.17;100.00;97759.31;5034712;28;20057;-81
2021/11/01 16:15:12;;;;;;;4.53;1.67;;;;;;;9.92;100.00;97757.34;5034786;28;20049;-81
2021/11/01 16:17:29;;;;;;;2.92;1.40;;;;;;;9.51;100.00;97771.25;4989287;28;20122;-82
2021/11/01 16:19:56;;;;;;;2.90;1.58;;;;;;;9.49;100.00;97762.50;4974814;28;20384;-82
2021/11/01 16:22:23;;;;;;;3.88;1.63;;;;;;;9.39;100.00;97777.31;4993012;28;20054;-82
2021/11/01 16:24:50;;;;;;;7.35;1.40;;;;;;;9.32;100.00;97784.63;4979487;28;20099;-82
2021/11/01 16:27:20;;;;;;;6.85;2.00;;;;;;;9.25;100.00;97782.97;4991701;28;20050;-82
2021/11/01 16:29:51;;;;;;;4.15;2.28;;;;;;;9.25;100.00;97781.09;4983793;28;20042;-82
2021/11/01 16:32:23;;;;;;;5.35;2.38;;;;;;;9.23;100.00;97787.75;4992471;28;20054;-82
2021/11/01 16:34:54;;;;;;;9.25;4.72;;;;;;;9.18;100.00;97789.25;4974966;28;20137;-82
2021/11/01 16:37:28;;;;;;;15.05;6.72;;;;;;;9.18;100.00;97799.22;4984577;28;20094;-82
2021/11/01 16:39:59;;;;;;;10.38;4.65;;;;;;;9.08;100.00;97783.41;4986848;28;20158;-82
2021/11/01 16:42:30;;;;;;;6.28;2.97;;;;;;;9.15;100.00;97796.94;4978037;28;20054;-82
2021/11/01 16:45:02;;;;;;;4.55;2.10;;;;;;;9.18;100.00;97799.22;4983263;28;20134;-82
2021/11/01 16:47:31;;;;;;;2.90;1.60;;;;;;;9.16;100.00;97801.34;4975504;28;20510;-82
2021/11/01 16:50:00;;;;;;;6.70;1.27;;;;;;;9.05;100.00;97789.25;4991316;28;20113;-81
2021/11/01 16:52:27;;;;;;;3.83;2.22;;;;;;;9.15;100.00;97800.50;4993690;28;20056;-82
2021/11/01 16:54:56;;;;;;;4.65;1.60;;;;;;;9.10;100.00;97796.75;4993592;28;20058;-82
2021/11/01 16:57:26;;;;;;;2.97;1.30;;;;;;;9.14;100.00;97800.72;4992764;28;20504;-82
2021/11/01 17:00:09;;;;;;;2.55;1.30;;;;;;;9.16;100.00;97802.16;4991711;28;20097;-82
2021/11/01 17:02:52;;;;;;;5.57;3.33;;;;;;;9.15;100.00;97796.94;4987366;28;20078;-82
2021/11/01 17:05:26;;;;;;;4.38;2.58;;;;;;;9.15;100.00;97802.38;4979531;28;20467;-82
2021/11/01 17:21:44;;;;;;;2.60;1.90;;;;;;;9.02;100.00;97792.38;4992523;28;20088;-82
2021/11/01 17:24:23;;;;;;;3.70;2.20;;;;;;;9.08;100.00;97796.09;4993538;28;20058;-82
2021/11/01 17:27:30;;;;;;;3.83;1.70;;;;;;;9.07;100.00;97797.16;4993192;28;20069;-82
2021/11/01 17:36:26;;;;;;;3.78;2.13;;;;;;;8.92;100.00;97795.47;4991417;28;20056;-82
2021/11/01 18:41:06;;;;;;;21.65;8.77;;;;;;;7.68;100.00;97777.59;4996072;28;20050;-83
2021/11/01 18:51:57;;;;;;;3.22;2.05;;;;;;;7.55;100.00;97765.69;4987078;28;20054;-83
2021/11/01 18:54:37;;;;;;;3.08;2.13;;;;;;;7.57;100.00;97769.03;4988618;28;20502;-83
2021/11/01 18:57:05;;;;;;;3.53;1.63;;;;;;;7.66;100.00;97764.28;4983225;28;20061;-82
2021/11/01 18:59:36;;;;;;;3.95;2.15;;;;;;;7.62;100.00;97761.16;4994063;28;20410;-82
2021/11/01 19:02:24;;;;;;;5.00;2.33;;;;;;;7.69;100.00;97760.34;4992830;28;20042;-82
2021/11/01 19:04:57;;;;;;;5.95;2.97;;;;;;;7.58;100.00;97761.75;4995648;28;20065;-83
2021/11/01 19:07:33;;;;;;;8.18;3.22;;;;;;;7.62;100.00;97773.84;4995461;28;20054;-82
2021/11/01 20:03:26;;;;;;;7.63;4.30;;;;;;;6.72;100.00;97812.28;4994449;28;20462;-82
2021/11/01 20:05:59;;;;;;;;;;;;;;;6.62;100.00;97810.94;4994632;28;20065;-82
2021/11/01 20:08:54;;;;;;;6.70;2.40;;;;;;;6.52;100.00;97813.97;4994616;28;19996;-83
2021/11/01 20:11:33;;;;;;;5.35;2.70;;;;;;;6.39;100.00;97806.53;4994650;28;20050;-82
2021/11/01 21:24:36;;;;;;;4.68;2.53;;;;;;;5.04;100.00;97807.63;4973702;28;20109;-83
2021/11/01 21:27:07;;;;;;;4.43;2.83;;;;;;;4.97;100.00;97818.31;4974259;28;20051;-84
2021/11/01 21:29:37;;;;;;;4.93;3.13;;;;;;;4.77;100.00;97805.34;4974116;28;20050;-83
2021/11/01 21:32:11;;;;;;;3.83;2.85;;;;;;;4.81;100.00;97810.38;4983765;28;20059;-83
2021/11/01 21:34:39;;;;;;;4.25;2.97;;;;;;;4.78;100.00;97806.19;4990872;28;20046;-83
2021/11/01 21:37:09;;;;;;;5.00;3.05;;;;;;;4.74;100.00;97812.94;4991147;28;20065;-82
2021/11/01 21:39:37;;;;;;;4.22;2.90;;;;;;;4.70;100.00;97795.50;4991651;28;20050;-83
2021/11/01 21:42:05;;;;;;;4.78;3.03;;;;;;;4.71;100.00;97803.38;4989715;28;20047;-83
2021/11/01 21:44:34;;;;;;;6.90;3.15;;;;;;;4.65;100.00;97805.94;4974467;28;20047;-83
2021/11/01 21:47:03;;;;;;;5.03;2.85;;;;;;;4.75;100.00;97804.69;4991375;28;20042;-83
2021/11/01 21:49:29;;;;;;;2.90;2.15;;;;;;;4.61;100.00;97798.22;4989667;28;20046;-82
2021/11/01 21:51:56;;;;;;;4.15;2.53;;;;;;;4.64;100.00;97793.50;4987037;28;20056;-82
2021/11/01 21:54:28;;;;;;;4.10;2.80;;;;;;;4.68;100.00;97801.06;4996308;28;20538;-82
2021/11/01 21:56:59;;;;;;;5.82;2.50;;;;;;;4.57;100.00;97804.16;4995305;28;20230;-82
2021/11/01 21:59:48;;;;;;;3.38;2.50;;;;;;;4.60;100.00;97801.09;4995804;28;20402;-82
2021/11/01 22:18:58;;;;;;;3.20;2.40;;;;;;;4.13;100.00;97778.72;4992748;28;20085;-82
2021/11/01 22:21:30;;;;;;;3.05;2.20;;;;;;;4.21;100.00;97780.53;4992775;28;20422;-83
2021/11/01 22:24:03;;;;;;;3.13;2.28;;;;;;;4.19;100.00;97763.75;4977342;28;20137;-83
2021/11/01 22:26:44;;;;;;;3.80;2.45;;;;;;;4.24;100.00;97769.41;4991264;28;20046;-82
2021/11/01 22:38:11;;;;;;;3.67;2.20;;;;;;;4.16;100.00;97774.84;4993835;28;20061;-82
2021/11/01 22:40:25;;;;;;;4.82;2.58;;;;;;;4.17;100.00;97757.69;4995364;28;20553;-82
2021/11/01 22:42:58;;;;;;;5.82;3.00;;;;;;;4.22;100.00;97761.53;4974541;28;20442;-82
2021/11/01 22:45:28;;;;;;;6.07;2.53;;;;;;;4.25;100.00;97754.97;4995774;28;20145;-82
2021/11/01 22:56:22;;;;;;;3.78;2.63;;;;;;;4.08;100.00;97759.63;4995993;28;20100;-82
2021/11/01 22:58:50;;;;;;;5.72;2.83;;;;;;;3.98;100.00;97740.19;4996205;28;20058;-83
2021/11/01 23:01:21;;;;;;;3.90;2.47;;;;;;;4.05;100.00;97743.81;4995208;28;20057;-82
2021/11/01 23:03:56;;;;;;;3.03;2.70;;;;;;;4.05;100.00;97738.44;4995641;28;20637;-83
2021/11/01 23:06:50;;;;;;;3.80;2.22;;;;;;;3.97;100.00;97727.75;4995496;28;20144;-82
2021/11/01 23:31:41;;;;;;;5.13;2.33;;;;;;;3.94;100.00;97726.22;4994075;28;20121;-83
2021/11/01 23:34:10;;;;;;;3.75;2.20;;;;;;;3.97;100.00;97715.13;4993165;28;20387;-84
2021/11/01 23:36:39;;;;;;;3.20;2.63;;;;;;;4.11;100.00;97712.69;4991928;28;20054;-81
2021/11/01 23:39:08;;;;;;;4.95;2.67;;;;;;;4.10;100.00;97709.16;4983540;28;20054;-81
2021/11/01 23:41:35;;;;;;;6.40;2.80;;;;;;;4.18;100.00;97705.56;4995302;28;20113;-82
2021/11/01 23:44:03;;;;;;;4.30;2.72;;;;;;;4.28;100.00;97708.03;4994348;28;20050;-82
2021/11/01 23:46:30;;;;;;;4.45;2.55;;;;;;;4.55;100.00;97698.53;4994433;28;20513;-82
2021/11/01 23:48:57;;;;;;;5.10;2.95;;;;;;;4.68;100.00;97697.91;4973783;28;20077;-82
2021/11/01 23:51:30;;;;;;;6.50;3.95;;;;;;;4.81;100.00;97684.66;4975506;28;20054;-82
2021/11/01 23:54:12;;;;;;;6.60;3.35;;;;;;;4.82;100.00;97680.09;4992216;28;20403;-82
2021/11/01 23:56:45;;;;;;;7.30;3.42;;;;;;;4.90;100.00;97696.19;4994579;28;20058;-82
2021/11/01 23:59:16;;;;;;;5.10;2.88;;;;;;;4.95;100.00;97683.84;4994024;28;20130;-82
